Corystes — GHRU — position and weather

sailwx.info

Track history (hours):
 
Tides and Currents Weather Stations Pressure Air Temp Water Temp Dewpoint Dewpoint Depression Visibility Wind Speed Wind Dir Waves Ship Positions

Oceanographic research ship Corystes (UK)

Detailed information on ship capabilities available from University of Delaware's Ocean Information Center.

Last reported at 2019-Jun-09 21:24 UTC. Time now 2019-Jun-19 14:45 UTC.
Position N 53°13' W 009°10'.
Warning: this ship's position is 9 days out of date.

Length 53 m; draft 5.2 m.

Type: Cargo ship. MMSI: 233558000.

Date/timePositionNaut miles runAvg speedWind from/ knotsBaromVisibWave heightAir tempDewpointWater temp
2019-Jun-09 21:24N 53°13' W 009°10'1 0.0
2019-Jun-08 05:29N 53°13' W 009°12'4 7.4
2019-Jun-08 04:58N 53°13' W 009°18'4 7.3
2019-Jun-08 04:24N 53°12' W 009°25'3 7.3
2019-Jun-08 03:57N 53°12' W 009°31'3 7.7
2019-Jun-08 03:30N 53°12' W 009°36'4 7.2
2019-Jun-08 02:55N 53°11' W 009°43'3 7.4
2019-Jun-08 02:29N 53°12' W 009°49'9 7.4
2019-Jun-08 01:20N 53°14' W 010°02'4 9.2
2019-Jun-08 00:56N 53°16' W 010°07'4 9.6
2019-Jun-08 00:29N 53°19' W 010°12'6 9.5
2019-Jun-07 23:50N 53°24' W 010°18'4 9.8
2019-Jun-07 23:24N 53°29' W 010°20'4 9.5
2019-Jun-07 23:00N 53°32' W 010°21'5 9.7
2019-Jun-07 22:30N 53°37' W 010°21'5 9.9
2019-Jun-07 22:00N 53°42' W 010°21'5 9.7
2019-Jun-07 21:30N 53°47' W 010°20'5 9.5
2019-Jun-07 20:59N 53°52' W 010°20'5 9.6
2019-Jun-07 20:30N 53°56' W 010°19'5 9.6
2019-Jun-07 20:00N 54°01' W 010°18'510.1
2019-Jun-07 19:29N 54°06' W 010°16'510.0
2019-Jun-07 19:00N 54°11' W 010°13'5 9.8
2019-Jun-07 18:30N 54°15' W 010°10'5 8.9
2019-Jun-07 17:54N 54°20' W 010°04'5 9.1
2019-Jun-07 17:24N 54°23' W 009°59'6 9.2
2019-Jun-07 16:46N 54°27' W 009°51'3 9.5
2019-Jun-07 16:27N 54°29' W 009°47'6 9.6
2019-Jun-07 15:50N 54°33' W 009°40'5 9.6
2019-Jun-07 15:20N 54°36' W 009°34'3 9.7
2019-Jun-07 14:59N 54°38' W 009°30'6 9.8
2019-Jun-07 14:20N 54°42' W 009°21'8 9.9
2019-Jun-07 13:30N 54°48' W 009°11'31 9.9
2019-Jun-07 10:21N 55°08' W 008°29'12 9.5
2019-Jun-07 09:04N 55°14' W 008°11'2 9.4
2019-Jun-07 08:55N 55°15' W 008°08'6 9.1
2019-Jun-07 08:14N 55°17' W 007°58'2 9.0
2019-Jun-07 07:59N 55°18' W 007°55'5 9.0
2019-Jun-07 07:24N 55°20' W 007°46'4 9.0
2019-Jun-07 07:00N 55°21' W 007°40'17 9.8
2019-Jun-07 05:19N 55°24' W 007°11'512.5
2019-Jun-07 04:53N 55°22' W 007°02'712.3
2019-Jun-07 04:20N 55°20' W 006°50'511.8
2019-Jun-07 03:56N 55°19' W 006°42'511.7
2019-Jun-07 03:30N 55°18' W 006°34'611.3
2019-Jun-07 03:00N 55°16' W 006°24'612.2
2019-Jun-07 02:30N 55°15' W 006°14'713.0
2019-Jun-07 02:00N 55°13' W 006°03'25 9.4
2019-Jun-06 23:19N 54°51' W 005°41'2 8.0
2019-Jun-06 23:00N 54°49' W 005°40'5 8.9
2019-Jun-06 22:29N 54°44' W 005°41'4 9.1
2019-Jun-06 22:00N 54°41' W 005°47'4 9.0
2019-Jun-06 21:30N 54°38' W 005°53'2 3.7
2019-Jun-06 20:59N 54°37' W 005°55'0 0.0
2019-Jun-06 20:29N 54°37' W 005°55'0 0.0
2019-Jun-06 19:59N 54°37' W 005°55'0 0.0
2019-Jun-06 19:29N 54°37' W 005°55'0 0.0
2019-Jun-06 18:59N 54°37' W 005°55'0 0.0
2019-Jun-06 18:29N 54°37' W 005°55'0 0.0
2019-Jun-06 17:59N 54°37' W 005°55'0 0.0
2019-Jun-06 17:29N 54°37' W 005°55'0 0.0
2019-Jun-06 16:59N 54°37' W 005°55'0 0.0
2019-Jun-06 16:29N 54°37' W 005°55'0 0.0
2019-Jun-06 15:59N 54°37' W 005°55'0 0.0
2019-Jun-06 15:29N 54°37' W 005°55'0 0.0
2019-Jun-06 14:59N 54°37' W 005°55'0 0.0
2019-Jun-06 14:29N 54°37' W 005°55'0 0.0
2019-Jun-06 13:59N 54°37' W 005°55'0 0.0
2019-Jun-06 13:29N 54°37' W 005°55'0 0.0
2019-Jun-06 12:59N 54°37' W 005°55'0 0.0
2019-Jun-06 12:29N 54°37' W 005°55'0 0.0
2019-Jun-06 11:59N 54°37' W 005°55'0 0.0
2019-Jun-06 11:29N 54°37' W 005°55'0 0.0
2019-Jun-06 10:59N 54°37' W 005°55'0 0.0
2019-Jun-06 10:29N 54°37' W 005°55'0 0.0
2019-Jun-06 09:59N 54°37' W 005°55'0 0.0
2019-Jun-06 09:29N 54°37' W 005°55'0 0.0
2019-Jun-06 08:59N 54°37' W 005°55'0 0.0
2019-Jun-06 08:29N 54°37' W 005°55'0 0.0
2019-Jun-06 07:59N 54°37' W 005°55'0 0.0
2019-Jun-06 07:29N 54°37' W 005°55'0 0.0
2019-Jun-06 06:59N 54°37' W 005°55'0 0.0
2019-Jun-06 06:29N 54°37' W 005°55'0 0.0
2019-Jun-06 05:59N 54°37' W 005°55'0 0.0
2019-Jun-06 05:29N 54°37' W 005°55'0 0.0
2019-Jun-06 04:59N 54°37' W 005°55'0 0.0
2019-Jun-06 04:29N 54°37' W 005°55'0 0.0
2019-Jun-06 03:59N 54°37' W 005°55'0 0.0
2019-Jun-06 03:26N 54°37' W 005°55'0 0.0
2019-Jun-06 02:59N 54°37' W 005°55'0 0.0
2019-Jun-06 02:29N 54°37' W 005°55'0 0.0
2019-Jun-06 01:59N 54°37' W 005°55'0 0.0
2019-Jun-06 01:29N 54°37' W 005°55'0 0.0
2019-Jun-06 00:56N 54°37' W 005°55'0 0.0
2019-Jun-06 00:29N 54°37' W 005°55'0 0.0
2019-Jun-05 23:59N 54°37' W 005°55'0 0.0
2019-Jun-05 23:29N 54°37' W 005°55'0 0.0
2019-Jun-05 22:59N 54°37' W 005°55'0 0.0
2019-Jun-05 22:29N 54°37' W 005°55'0 0.0
2019-Jun-05 21:59N 54°37' W 005°55'0 0.0
2019-Jun-05 21:29N 54°37' W 005°55'0 0.0
2019-Jun-05 20:59N 54°37' W 005°55'0 0.0
2019-Jun-05 20:29N 54°37' W 005°55'0 0.0
2019-Jun-05 19:56N 54°37' W 005°55'0 0.0
2019-Jun-05 19:29N 54°37' W 005°55'0 0.0
2019-Jun-05 18:59N 54°37' W 005°55'0 0.0
2019-Jun-05 18:29N 54°37' W 005°55'0 0.0
2019-Jun-05 17:59N 54°37' W 005°55'0 0.0
2019-Jun-05 17:29N 54°37' W 005°55'0 0.0
2019-Jun-05 16:59N 54°37' W 005°55'0 0.0
2019-Jun-05 16:29N 54°37' W 005°55'0 0.0
2019-Jun-05 15:59N 54°37' W 005°55'0 0.0
2019-Jun-05 15:25N 54°37' W 005°55'0 0.0
2019-Jun-05 14:59N 54°37' W 005°55'0 0.0
2019-Jun-05 14:29N 54°37' W 005°55'0 0.0
2019-Jun-05 13:59N 54°37' W 005°55'0 0.0
2019-Jun-05 13:28N 54°37' W 005°55'0 0.0
2019-Jun-05 12:58N 54°37' W 005°55'0 0.0
2019-Jun-05 12:28N 54°37' W 005°55'0 0.0
2019-Jun-05 11:58N 54°37' W 005°55'0 0.0
2019-Jun-05 11:28N 54°37' W 005°55'0 0.0
2019-Jun-05 10:58N 54°37' W 005°55'0 0.0
2019-Jun-05 10:28N 54°37' W 005°55'0 0.0
2019-Jun-05 09:58N 54°37' W 005°55'0 0.0
2019-Jun-05 09:25N 54°37' W 005°55'0 0.0
2019-Jun-05 08:58N 54°37' W 005°55'0 0.0
2019-Jun-05 08:28N 54°37' W 005°55'0 0.0
2019-Jun-05 07:58N 54°37' W 005°55'1 3.0
2019-Jun-05 07:30N 54°38' W 005°53'4 8.2
2019-Jun-05 07:00N 54°41' W 005°49'5 9.9
2019-Jun-05 06:30N 54°43' W 005°40'5 9.1
2019-Jun-05 06:00N 54°43' W 005°32'3 7.0
2019-Jun-05 05:30N 54°40' W 005°28'510.5
2019-Jun-05 04:59N 54°35' W 005°24'611.1
2019-Jun-05 04:29N 54°30' W 005°20'511.0
2019-Jun-05 04:00N 54°25' W 005°16'610.8
2019-Jun-05 03:26N 54°20' W 005°12'710.3
2019-Jun-05 02:47N 54°14' W 005°07'12 3.2
2019-Jun-04 23:01N 54°04' W 005°19'0 2.9
2019-Jun-04 22:59N 54°04' W 005°19'7 5.6
2019-Jun-04 21:42N 54°11' W 005°20'4 8.4
2019-Jun-04 21:16N 54°10' W 005°26'3 9.9
2019-Jun-04 20:58N 54°09' W 005°30'4 8.2
2019-Jun-04 20:28N 54°07' W 005°37'1 3.2
2019-Jun-04 20:00N 54°07' W 005°39'2 3.9
2019-Jun-04 19:30N 54°07' W 005°43'1 2.5
2019-Jun-04 19:00N 54°08' W 005°45'0 1.0
2019-Jun-04 18:30N 54°07' W 005°44'1 1.0
2019-Jun-04 18:00N 54°07' W 005°43'0 0.9
2019-Jun-04 17:30N 54°07' W 005°43'0 0.9
2019-Jun-04 17:00N 54°07' W 005°42'0 0.9
2019-Jun-04 16:30N 54°07' W 005°41'0 0.9
2019-Jun-04 16:00N 54°07' W 005°40'0 0.7
2019-Jun-04 15:29N 54°06' W 005°40'1 1.0
2019-Jun-04 15:00N 54°07' W 005°39'0 0.5
2019-Jun-04 14:04N 54°07' W 005°39'1 9.6
2019-Jun-04 13:56N 54°07' W 005°41'5 8.0
2019-Jun-04 13:20N 54°07' W 005°50'2 4.6
2019-Jun-04 12:59N 54°08' W 005°48'510.0
2019-Jun-04 12:30N 54°11' W 005°42'5 9.7
2019-Jun-04 12:00N 54°14' W 005°35'510.0
2019-Jun-04 11:30N 54°18' W 005°29'510.0
2019-Jun-04 11:00N 54°21' W 005°23'3 5.1
2019-Jun-04 10:30N 54°23' W 005°20'6 9.6
2019-Jun-04 09:53N 54°22' W 005°10'1 3.4
2019-Jun-04 09:30N 54°22' W 005°07'56 4.1
2019-Jun-03 19:43N 53°38' W 006°07'0 0.8
2019-Jun-03 19:14N 53°38' W 006°07'1 0.4
2019-Jun-03 16:04N 53°37' W 006°08'1 0.0
2019-Jun-02 07:43N 53°37' W 006°07'1 2.1
2019-Jun-02 07:25N 53°38' W 006°07'3 7.5
2019-Jun-02 07:00N 53°41' W 006°05'1 1.2
2019-Jun-02 06:29N 53°41' W 006°04'7 3.4
2019-Jun-02 04:30N 53°40' W 005°53'1 1.4
2019-Jun-02 03:54N 53°39' W 005°53'20 5.0
2019-Jun-01 23:51N 53°19' W 005°52'2 4.1
2019-Jun-01 23:23N 53°18' W 005°49'8 5.6
2019-Jun-01 21:53N 53°23' W 005°38'26 1.3
2019-Jun-01 01:12N 53°49' W 005°31'2 4.5
2019-Jun-01 00:46N 53°49' W 005°35'7 6.0
2019-May-31 23:31N 53°56' W 005°37'1 9.7
2019-May-31 23:26N 53°56' W 005°38'4 9.8
2019-May-31 23:00N 53°56' W 005°45'4 8.3
2019-May-31 22:30N 53°56' W 005°52'7 5.8
2019-May-31 21:15N 53°49' W 005°53'2 9.6
2019-May-31 21:00N 53°50' W 005°57'510.0
2019-May-31 20:30N 53°52' W 006°04'2 3.3
2019-May-31 20:00N 53°52' W 006°07'2 4.1
2019-May-31 19:30N 53°50' W 006°06'2 3.8
2019-May-31 19:00N 53°49' W 006°07'5 9.1
2019-May-31 18:30N 53°53' W 006°06'3 5.3
2019-May-31 18:00N 53°56' W 006°05'3 5.7
2019-May-31 17:30N 53°56' W 006°00'5 9.1
2019-May-31 17:00N 53°57' W 005°53'1 2.9
2019-May-31 16:30N 53°56' W 005°51'6 1.8
2019-May-31 13:17N 53°50' W 005°52'  
Track history (hours):
 
Tides and Currents Weather Stations Pressure Air Temp Water Temp Dewpoint Dewpoint Depression Visibility Wind Speed Wind Dir Waves Ship Positions

Oceanographic research ship Corystes (UK)

Detailed information on ship capabilities available from University of Delaware's Ocean Information Center.

Last reported at 2019-Jun-09 21:24 UTC. Time now 2019-Jun-19 14:45 UTC.
Position N 53°13' W 009°10'.
Warning: this ship's position is 9 days out of date.

Length 53 m; draft 5.2 m.

Type: Cargo ship. MMSI: 233558000.

Date/timePositionNaut miles runAvg speedWind from/ knotsBaromVisibWave heightAir tempDewpointWater temp
2019-Jun-09 21:24N 53°13' W 009°10'1 0.0
2019-Jun-08 05:29N 53°13' W 009°12'4 7.4
2019-Jun-08 04:58N 53°13' W 009°18'4 7.3
2019-Jun-08 04:24N 53°12' W 009°25'3 7.3
2019-Jun-08 03:57N 53°12' W 009°31'3 7.7
2019-Jun-08 03:30N 53°12' W 009°36'4 7.2
2019-Jun-08 02:55N 53°11' W 009°43'3 7.4
2019-Jun-08 02:29N 53°12' W 009°49'9 7.4
2019-Jun-08 01:20N 53°14' W 010°02'4 9.2
2019-Jun-08 00:56N 53°16' W 010°07'4 9.6
2019-Jun-08 00:29N 53°19' W 010°12'6 9.5
2019-Jun-07 23:50N 53°24' W 010°18'4 9.8
2019-Jun-07 23:24N 53°29' W 010°20'4 9.5
2019-Jun-07 23:00N 53°32' W 010°21'5 9.7
2019-Jun-07 22:30N 53°37' W 010°21'5 9.9
2019-Jun-07 22:00N 53°42' W 010°21'5 9.7
2019-Jun-07 21:30N 53°47' W 010°20'5 9.5
2019-Jun-07 20:59N 53°52' W 010°20'5 9.6
2019-Jun-07 20:30N 53°56' W 010°19'5 9.6
2019-Jun-07 20:00N 54°01' W 010°18'510.1
2019-Jun-07 19:29N 54°06' W 010°16'510.0
2019-Jun-07 19:00N 54°11' W 010°13'5 9.8
2019-Jun-07 18:30N 54°15' W 010°10'5 8.9
2019-Jun-07 17:54N 54°20' W 010°04'5 9.1
2019-Jun-07 17:24N 54°23' W 009°59'6 9.2
2019-Jun-07 16:46N 54°27' W 009°51'3 9.5
2019-Jun-07 16:27N 54°29' W 009°47'6 9.6
2019-Jun-07 15:50N 54°33' W 009°40'5 9.6
2019-Jun-07 15:20N 54°36' W 009°34'3 9.7
2019-Jun-07 14:59N 54°38' W 009°30'6 9.8
2019-Jun-07 14:20N 54°42' W 009°21'8 9.9
2019-Jun-07 13:30N 54°48' W 009°11'31 9.9
2019-Jun-07 10:21N 55°08' W 008°29'12 9.5
2019-Jun-07 09:04N 55°14' W 008°11'2 9.4
2019-Jun-07 08:55N 55°15' W 008°08'6 9.1
2019-Jun-07 08:14N 55°17' W 007°58'2 9.0
2019-Jun-07 07:59N 55°18' W 007°55'5 9.0
2019-Jun-07 07:24N 55°20' W 007°46'4 9.0
2019-Jun-07 07:00N 55°21' W 007°40'17 9.8
2019-Jun-07 05:19N 55°24' W 007°11'512.5
2019-Jun-07 04:53N 55°22' W 007°02'712.3
2019-Jun-07 04:20N 55°20' W 006°50'511.8
2019-Jun-07 03:56N 55°19' W 006°42'511.7
2019-Jun-07 03:30N 55°18' W 006°34'611.3
2019-Jun-07 03:00N 55°16' W 006°24'612.2
2019-Jun-07 02:30N 55°15' W 006°14'713.0
2019-Jun-07 02:00N 55°13' W 006°03'25 9.4
2019-Jun-06 23:19N 54°51' W 005°41'2 8.0
2019-Jun-06 23:00N 54°49' W 005°40'5 8.9
2019-Jun-06 22:29N 54°44' W 005°41'4 9.1
2019-Jun-06 22:00N 54°41' W 005°47'4 9.0
2019-Jun-06 21:30N 54°38' W 005°53'2 3.7
2019-Jun-06 20:59N 54°37' W 005°55'0 0.0
2019-Jun-06 20:29N 54°37' W 005°55'0 0.0
2019-Jun-06 19:59N 54°37' W 005°55'0 0.0
2019-Jun-06 19:29N 54°37' W 005°55'0 0.0
2019-Jun-06 18:59N 54°37' W 005°55'0 0.0
2019-Jun-06 18:29N 54°37' W 005°55'0 0.0
2019-Jun-06 17:59N 54°37' W 005°55'0 0.0
2019-Jun-06 17:29N 54°37' W 005°55'0 0.0
2019-Jun-06 16:59N 54°37' W 005°55'0 0.0
2019-Jun-06 16:29N 54°37' W 005°55'0 0.0
2019-Jun-06 15:59N 54°37' W 005°55'0 0.0
2019-Jun-06 15:29N 54°37' W 005°55'0 0.0
2019-Jun-06 14:59N 54°37' W 005°55'0 0.0
2019-Jun-06 14:29N 54°37' W 005°55'0 0.0
2019-Jun-06 13:59N 54°37' W 005°55'0 0.0
2019-Jun-06 13:29N 54°37' W 005°55'0 0.0
2019-Jun-06 12:59N 54°37' W 005°55'0 0.0
2019-Jun-06 12:29N 54°37' W 005°55'0 0.0
2019-Jun-06 11:59N 54°37' W 005°55'0 0.0
2019-Jun-06 11:29N 54°37' W 005°55'0 0.0
2019-Jun-06 10:59N 54°37' W 005°55'0 0.0
2019-Jun-06 10:29N 54°37' W 005°55'0 0.0
2019-Jun-06 09:59N 54°37' W 005°55'0 0.0
2019-Jun-06 09:29N 54°37' W 005°55'0 0.0
2019-Jun-06 08:59N 54°37' W 005°55'0 0.0
2019-Jun-06 08:29N 54°37' W 005°55'0 0.0
2019-Jun-06 07:59N 54°37' W 005°55'0 0.0
2019-Jun-06 07:29N 54°37' W 005°55'0 0.0
2019-Jun-06 06:59N 54°37' W 005°55'0 0.0
2019-Jun-06 06:29N 54°37' W 005°55'0 0.0
2019-Jun-06 05:59N 54°37' W 005°55'0 0.0
2019-Jun-06 05:29N 54°37' W 005°55'0 0.0
2019-Jun-06 04:59N 54°37' W 005°55'0 0.0
2019-Jun-06 04:29N 54°37' W 005°55'0 0.0
2019-Jun-06 03:59N 54°37' W 005°55'0 0.0
2019-Jun-06 03:26N 54°37' W 005°55'0 0.0
2019-Jun-06 02:59N 54°37' W 005°55'0 0.0
2019-Jun-06 02:29N 54°37' W 005°55'0 0.0
2019-Jun-06 01:59N 54°37' W 005°55'0 0.0
2019-Jun-06 01:29N 54°37' W 005°55'0 0.0
2019-Jun-06 00:56N 54°37' W 005°55'0 0.0
2019-Jun-06 00:29N 54°37' W 005°55'0 0.0
2019-Jun-05 23:59N 54°37' W 005°55'0 0.0
2019-Jun-05 23:29N 54°37' W 005°55'0 0.0
2019-Jun-05 22:59N 54°37' W 005°55'0 0.0
2019-Jun-05 22:29N 54°37' W 005°55'0 0.0
2019-Jun-05 21:59N 54°37' W 005°55'0 0.0
2019-Jun-05 21:29N 54°37' W 005°55'0 0.0
2019-Jun-05 20:59N 54°37' W 005°55'0 0.0
2019-Jun-05 20:29N 54°37' W 005°55'0 0.0
2019-Jun-05 19:56N 54°37' W 005°55'0 0.0
2019-Jun-05 19:29N 54°37' W 005°55'0 0.0
2019-Jun-05 18:59N 54°37' W 005°55'0 0.0
2019-Jun-05 18:29N 54°37' W 005°55'0 0.0
2019-Jun-05 17:59N 54°37' W 005°55'0 0.0
2019-Jun-05 17:29N 54°37' W 005°55'0 0.0
2019-Jun-05 16:59N 54°37' W 005°55'0 0.0
2019-Jun-05 16:29N 54°37' W 005°55'0 0.0
2019-Jun-05 15:59N 54°37' W 005°55'0 0.0
2019-Jun-05 15:25N 54°37' W 005°55'0 0.0
2019-Jun-05 14:59N 54°37' W 005°55'0 0.0
2019-Jun-05 14:29N 54°37' W 005°55'0 0.0
2019-Jun-05 13:59N 54°37' W 005°55'0 0.0
2019-Jun-05 13:28N 54°37' W 005°55'0 0.0
2019-Jun-05 12:58N 54°37' W 005°55'0 0.0
2019-Jun-05 12:28N 54°37' W 005°55'0 0.0
2019-Jun-05 11:58N 54°37' W 005°55'0 0.0
2019-Jun-05 11:28N 54°37' W 005°55'0 0.0
2019-Jun-05 10:58N 54°37' W 005°55'0 0.0
2019-Jun-05 10:28N 54°37' W 005°55'0 0.0
2019-Jun-05 09:58N 54°37' W 005°55'0 0.0
2019-Jun-05 09:25N 54°37' W 005°55'0 0.0
2019-Jun-05 08:58N 54°37' W 005°55'0 0.0
2019-Jun-05 08:28N 54°37' W 005°55'0 0.0
2019-Jun-05 07:58N 54°37' W 005°55'1 3.0
2019-Jun-05 07:30N 54°38' W 005°53'4 8.2
2019-Jun-05 07:00N 54°41' W 005°49'5 9.9
2019-Jun-05 06:30N 54°43' W 005°40'5 9.1
2019-Jun-05 06:00N 54°43' W 005°32'3 7.0
2019-Jun-05 05:30N 54°40' W 005°28'510.5
2019-Jun-05 04:59N 54°35' W 005°24'611.1
2019-Jun-05 04:29N 54°30' W 005°20'511.0
2019-Jun-05 04:00N 54°25' W 005°16'610.8
2019-Jun-05 03:26N 54°20' W 005°12'710.3
2019-Jun-05 02:47N 54°14' W 005°07'12 3.2
2019-Jun-04 23:01N 54°04' W 005°19'0 2.9
2019-Jun-04 22:59N 54°04' W 005°19'7 5.6
2019-Jun-04 21:42N 54°11' W 005°20'4 8.4
2019-Jun-04 21:16N 54°10' W 005°26'3 9.9
2019-Jun-04 20:58N 54°09' W 005°30'4 8.2
2019-Jun-04 20:28N 54°07' W 005°37'1 3.2
2019-Jun-04 20:00N 54°07' W 005°39'2 3.9
2019-Jun-04 19:30N 54°07' W 005°43'1 2.5
2019-Jun-04 19:00N 54°08' W 005°45'0 1.0
2019-Jun-04 18:30N 54°07' W 005°44'1 1.0
2019-Jun-04 18:00N 54°07' W 005°43'0 0.9
2019-Jun-04 17:30N 54°07' W 005°43'0 0.9
2019-Jun-04 17:00N 54°07' W 005°42'0 0.9
2019-Jun-04 16:30N 54°07' W 005°41'0 0.9
2019-Jun-04 16:00N 54°07' W 005°40'0 0.7
2019-Jun-04 15:29N 54°06' W 005°40'1 1.0
2019-Jun-04 15:00N 54°07' W 005°39'0 0.5
2019-Jun-04 14:04N 54°07' W 005°39'1 9.6
2019-Jun-04 13:56N 54°07' W 005°41'5 8.0
2019-Jun-04 13:20N 54°07' W 005°50'2 4.6
2019-Jun-04 12:59N 54°08' W 005°48'510.0
2019-Jun-04 12:30N 54°11' W 005°42'5 9.7
2019-Jun-04 12:00N 54°14' W 005°35'510.0
2019-Jun-04 11:30N 54°18' W 005°29'510.0
2019-Jun-04 11:00N 54°21' W 005°23'3 5.1
2019-Jun-04 10:30N 54°23' W 005°20'6 9.6
2019-Jun-04 09:53N 54°22' W 005°10'1 3.4
2019-Jun-04 09:30N 54°22' W 005°07'56 4.1
2019-Jun-03 19:43N 53°38' W 006°07'0 0.8
2019-Jun-03 19:14N 53°38' W 006°07'1 0.4
2019-Jun-03 16:04N 53°37' W 006°08'1 0.0
2019-Jun-02 07:43N 53°37' W 006°07'1 2.1
2019-Jun-02 07:25N 53°38' W 006°07'3 7.5
2019-Jun-02 07:00N 53°41' W 006°05'1 1.2
2019-Jun-02 06:29N 53°41' W 006°04'7 3.4
2019-Jun-02 04:30N 53°40' W 005°53'1 1.4
2019-Jun-02 03:54N 53°39' W 005°53'20 5.0
2019-Jun-01 23:51N 53°19' W 005°52'2 4.1
2019-Jun-01 23:23N 53°18' W 005°49'8 5.6
2019-Jun-01 21:53N 53°23' W 005°38'26 1.3
2019-Jun-01 01:12N 53°49' W 005°31'2 4.5
2019-Jun-01 00:46N 53°49' W 005°35'7 6.0
2019-May-31 23:31N 53°56' W 005°37'1 9.7
2019-May-31 23:26N 53°56' W 005°38'4 9.8
2019-May-31 23:00N 53°56' W 005°45'4 8.3
2019-May-31 22:30N 53°56' W 005°52'7 5.8
2019-May-31 21:15N 53°49' W 005°53'2 9.6
2019-May-31 21:00N 53°50' W 005°57'510.0
2019-May-31 20:30N 53°52' W 006°04'2 3.3
2019-May-31 20:00N 53°52' W 006°07'2 4.1
2019-May-31 19:30N 53°50' W 006°06'2 3.8
2019-May-31 19:00N 53°49' W 006°07'5 9.1
2019-May-31 18:30N 53°53' W 006°06'3 5.3
2019-May-31 18:00N 53°56' W 006°05'3 5.7
2019-May-31 17:30N 53°56' W 006°00'5 9.1
2019-May-31 17:00N 53°57' W 005°53'1 2.9
2019-May-31 16:30N 53°56' W 005°51'6 1.8
2019-May-31 13:17N 53°50' W 005°52'  

Dump ship's entire track history